createdAt,value
2022-10-27T00:00:12.153Z,98875.34
2022-10-27T00:02:46.832Z,98877.59
2022-10-27T00:05:17.180Z,98878.06
2022-10-27T00:07:47.612Z,98881.75
2022-10-27T00:10:18.561Z,98868.06
2022-10-27T00:12:49.135Z,98871.41
2022-10-27T00:15:22.280Z,98865.53
2022-10-27T00:17:52.392Z,98865.25
2022-10-27T00:20:22.482Z,98861.28
2022-10-27T00:22:52.977Z,98866.72
2022-10-27T00:25:23.134Z,98868.53
2022-10-27T00:27:53.119Z,98873.16
2022-10-27T00:30:25.677Z,98868.88
2022-10-27T00:32:57.432Z,98873.03
2022-10-27T00:35:27.541Z,98866.19
2022-10-27T00:37:57.545Z,98875.88
2022-10-27T00:40:27.930Z,98885.91
2022-10-27T00:42:57.930Z,98886.88
2022-10-27T00:45:31.112Z,98888.84
2022-10-27T00:48:01.586Z,98892.00
2022-10-27T00:50:31.571Z,98896.88
2022-10-27T00:53:04.131Z,98892.63
2022-10-27T00:55:38.282Z,98895.78
2022-10-27T00:58:13.746Z,98892.59
2022-10-27T01:00:46.823Z,98904.88
2022-10-27T01:03:22.952Z,98898.84
2022-10-27T01:05:55.451Z,98898.06
2022-10-27T01:08:26.794Z,98899.66
2022-10-27T01:10:56.925Z,98895.84
2022-10-27T01:13:27.766Z,98893.97
2022-10-27T01:16:17.745Z,98896.34
2022-10-27T01:19:07.531Z,98894.59
2022-10-27T01:22:09.138Z,98891.75
2022-10-27T01:25:15.226Z,98893.63
2022-10-27T01:28:31.518Z,98887.91
2022-10-27T01:31:12.878Z,98874.94
2022-10-27T01:33:51.551Z,98881.91
2022-10-27T01:36:33.483Z,98884.59
2022-10-27T01:39:13.185Z,98882.38
2022-10-27T01:41:51.634Z,98880.00
2022-10-27T01:44:28.761Z,98883.50
2022-10-27T01:47:01.455Z,98881.72
2022-10-27T01:49:38.801Z,98877.75
2022-10-27T01:52:10.853Z,98880.34
2022-10-27T01:54:42.280Z,98880.00
2022-10-27T01:57:31.725Z,98881.91
2022-10-27T02:00:07.261Z,98880.94
2022-10-27T02:02:48.544Z,98881.59
2022-10-27T02:05:30.363Z,98883.66
2022-10-27T02:08:11.600Z,98878.72
2022-10-27T02:10:52.968Z,98876.97
2022-10-27T02:13:24.032Z,98875.25
2022-10-27T02:16:01.226Z,98876.50
2022-10-27T02:18:39.082Z,98872.66
2022-10-27T02:21:14.383Z,98880.31
2022-10-27T02:23:45.683Z,98876.81
2022-10-27T02:26:24.715Z,98875.84
2022-10-27T02:29:02.565Z,98880.94
2022-10-27T02:31:39.797Z,98878.38
2022-10-27T02:34:14.078Z,98880.94
2022-10-27T02:36:44.237Z,98885.53
2022-10-27T02:39:14.261Z,98890.13
2022-10-27T02:41:44.331Z,98887.25
2022-10-27T02:44:14.361Z,98893.94
2022-10-27T02:46:45.470Z,98896.75
2022-10-27T02:49:18.228Z,98894.53
2022-10-27T02:51:48.193Z,98892.28
2022-10-27T02:54:18.174Z,98896.72
2022-10-27T02:56:48.138Z,98888.22
2022-10-27T02:59:18.148Z,98892.00
2022-10-27T03:01:48.376Z,98893.38
2022-10-27T03:04:21.065Z,98886.84
2022-10-27T03:06:51.111Z,98882.59
2022-10-27T03:09:21.534Z,98881.94
2022-10-27T03:11:51.498Z,98884.94
2022-10-27T03:14:21.532Z,98883.69
2022-10-27T03:16:51.505Z,98886.56
2022-10-27T03:19:24.100Z,98881.75
2022-10-27T03:21:54.095Z,98884.94
2022-10-27T03:24:24.046Z,98885.44
2022-10-27T03:26:54.043Z,98884.06
2022-10-27T03:29:24.075Z,98886.97
2022-10-27T03:31:54.622Z,98889.69
2022-10-27T03:34:27.200Z,98886.53
2022-10-27T03:36:57.190Z,98890.50
2022-10-27T03:39:27.193Z,98883.47
2022-10-27T03:41:57.190Z,98881.22
2022-10-27T03:44:27.282Z,98883.13
2022-10-27T03:46:57.279Z,98878.84
2022-10-27T03:49:30.049Z,98884.81
2022-10-27T03:52:00.031Z,98878.63
2022-10-27T03:54:33.405Z,98877.00
2022-10-27T03:57:03.436Z,98876.09
2022-10-27T03:59:33.443Z,98879.69
2022-10-27T04:02:06.315Z,98869.78
2022-10-27T04:04:40.067Z,98876.47
2022-10-27T04:07:10.166Z,98878.41
2022-10-27T04:09:40.177Z,98874.28
2022-10-27T04:12:10.797Z,98876.16
2022-10-27T04:14:40.774Z,98873.47
2022-10-27T04:17:10.720Z,98869.47
2022-10-27T04:19:43.274Z,98870.56
2022-10-27T04:22:13.374Z,98884.66
2022-10-27T04:24:43.359Z,98884.00
2022-10-27T04:27:13.453Z,98880.81
2022-10-27T04:29:43.434Z,98890.97
2022-10-27T04:32:13.405Z,98883.94
2022-10-27T04:34:46.113Z,98882.16
2022-10-27T04:37:16.384Z,98891.19
2022-10-27T04:39:46.361Z,98892.16
2022-10-27T04:42:16.432Z,98885.13
2022-10-27T04:44:47.447Z,98890.78
2022-10-27T04:47:17.498Z,98889.25
2022-10-27T04:49:50.165Z,98894.47
2022-10-27T04:52:20.142Z,98901.78
2022-10-27T04:54:50.108Z,98900.16
2022-10-27T04:57:20.234Z,98899.50
2022-10-27T04:59:50.900Z,98906.56
2022-10-27T05:02:20.876Z,98906.03
2022-10-27T05:04:53.599Z,98903.81
2022-10-27T05:07:23.822Z,98912.00
2022-10-27T05:09:53.813Z,98898.38
2022-10-27T05:12:24.229Z,98902.81
2022-10-27T05:14:54.286Z,98906.88
2022-10-27T05:17:24.315Z,98903.13
2022-10-27T05:19:57.015Z,98900.22
2022-10-27T05:22:27.026Z,98902.75
2022-10-27T05:24:57.046Z,98899.28
2022-10-27T05:27:27.149Z,98900.16
2022-10-27T05:29:57.130Z,98892.06
2022-10-27T05:32:27.816Z,98902.69
2022-10-27T05:35:00.497Z,98903.91
2022-10-27T05:37:30.506Z,98906.44
2022-10-27T05:40:00.994Z,98914.03
2022-10-27T05:42:31.026Z,98910.72
2022-10-27T05:45:01.046Z,98905.94
2022-10-27T05:47:31.169Z,98901.97
2022-10-27T05:50:03.730Z,98898.63
2022-10-27T05:52:33.724Z,98899.78
2022-10-27T05:55:03.823Z,98896.97
2022-10-27T05:57:33.802Z,98901.56
2022-10-27T06:00:03.827Z,98901.09
2022-10-27T06:02:34.463Z,98897.72
2022-10-27T06:05:08.332Z,98898.28
2022-10-27T06:07:38.338Z,98895.63
2022-10-27T06:10:09.222Z,98893.81
2022-10-27T06:12:39.270Z,98890.16
2022-10-27T06:15:11.143Z,98889.47
2022-10-27T06:17:41.182Z,98893.00
2022-10-27T06:20:14.892Z,98889.84
2022-10-27T06:22:44.968Z,98884.78
2022-10-27T06:25:15.090Z,98901.09
2022-10-27T06:27:45.189Z,98898.25
2022-10-27T06:30:15.597Z,98903.47
2022-10-27T06:32:46.018Z,98902.53
2022-10-27T06:35:18.854Z,98905.69
2022-10-27T06:37:49.825Z,98911.72
2022-10-27T06:40:23.011Z,98909.84
2022-10-27T06:43:08.953Z,98912.72
2022-10-27T06:45:40.041Z,98919.78
2022-10-27T06:48:13.471Z,98923.94
2022-10-27T06:50:46.350Z,98918.59
2022-10-27T06:53:16.431Z,98925.19
2022-10-27T06:55:46.465Z,98929.03
2022-10-27T06:58:17.074Z,98926.38
2022-10-27T07:00:47.156Z,98926.38
2022-10-27T07:03:17.324Z,98933.69
2022-10-27T07:05:49.894Z,98932.09
2022-10-27T07:08:19.855Z,98939.09
2022-10-27T07:10:49.859Z,98939.09
2022-10-27T07:13:19.877Z,98944.34
2022-10-27T07:15:49.868Z,98940.03
2022-10-27T07:18:20.022Z,98936.09
2022-10-27T07:20:53.896Z,98936.41
2022-10-27T07:23:24.166Z,98934.00
2022-10-27T07:25:54.264Z,98933.56
2022-10-27T07:28:24.236Z,98931.47
2022-10-27T07:30:58.676Z,98938.31
2022-10-27T07:33:28.866Z,98940.41
2022-10-27T07:36:01.497Z,98942.16
2022-10-27T07:38:31.540Z,98939.75
2022-10-27T07:41:01.685Z,98941.97
2022-10-27T07:43:31.675Z,98940.22
2022-10-27T07:46:02.036Z,98942.78
2022-10-27T07:48:32.199Z,98946.09
2022-10-27T07:51:04.919Z,98945.31
2022-10-27T07:53:35.025Z,98949.28
2022-10-27T07:56:06.018Z,98949.63
2022-10-27T07:58:36.096Z,98947.84
2022-10-27T08:01:06.761Z,98948.16
2022-10-27T08:06:11.050Z,98953.03
2022-10-27T08:08:41.086Z,98953.97
2022-10-27T08:11:11.086Z,98955.97
2022-10-27T08:13:41.087Z,98962.34
2022-10-27T08:16:11.528Z,98962.16
2022-10-27T08:18:41.578Z,98962.97
2022-10-27T08:21:14.437Z,98956.72
2022-10-27T08:23:45.216Z,98954.75
2022-10-27T08:26:15.207Z,98968.31
2022-10-27T08:28:45.312Z,98966.41
2022-10-27T08:31:15.364Z,98968.31
2022-10-27T08:33:45.367Z,98977.97
2022-10-27T08:36:18.056Z,98973.22
2022-10-27T08:38:48.281Z,98971.97
2022-10-27T08:41:28.454Z,98970.75
2022-10-27T08:44:27.423Z,98970.88
2022-10-27T08:47:04.056Z,98968.31
2022-10-27T08:49:44.876Z,98961.63
2022-10-27T08:52:32.546Z,98962.66
2022-10-27T08:55:20.689Z,98964.16
2022-10-27T08:58:02.621Z,98964.75
2022-10-27T09:00:38.085Z,98965.94
2022-10-27T09:03:37.272Z,98959.06
2022-10-27T09:06:19.204Z,98958.91
2022-10-27T09:09:06.127Z,98963.09
2022-10-27T09:11:49.281Z,98960.56
2022-10-27T09:14:45.515Z,98955.44
2022-10-27T09:17:23.464Z,98956.97
2022-10-27T09:20:01.342Z,98958.78
2022-10-27T09:25:20.081Z,98959.53
2022-10-27T09:27:55.911Z,98955.06
2022-10-27T09:32:59.931Z,98951.06
2022-10-27T09:35:31.567Z,98961.09
2022-10-27T09:38:02.309Z,98960.00
2022-10-27T09:40:36.766Z,98966.16
2022-10-27T09:43:06.934Z,98968.78
2022-10-27T09:45:36.998Z,98963.16
2022-10-27T09:48:13.677Z,98959.84
2022-10-27T09:50:53.385Z,98961.50
2022-10-27T09:53:42.714Z,98961.72
2022-10-27T09:56:21.308Z,98955.78
2022-10-27T09:59:01.252Z,98956.56
2022-10-27T10:01:52.006Z,98957.34
2022-10-27T10:04:28.674Z,98949.06
2022-10-27T10:07:02.822Z,98949.06
2022-10-27T10:09:35.821Z,98945.84
2022-10-27T10:12:24.692Z,98949.81
2022-10-27T10:15:15.451Z,98942.84
2022-10-27T10:17:54.674Z,98945.28
2022-10-27T10:20:37.955Z,98934.56
2022-10-27T10:23:22.214Z,98933.47
2022-10-27T10:25:54.305Z,98937.66
2022-10-27T10:28:36.668Z,98939.13
2022-10-27T10:31:11.892Z,98939.72
2022-10-27T10:33:47.128Z,98936.97
2022-10-27T10:36:29.360Z,98933.72
2022-10-27T10:39:01.477Z,98925.63
2022-10-27T10:41:32.609Z,98923.97
2022-10-27T10:44:18.352Z,98922.44
2022-10-27T10:46:57.463Z,98925.53
2022-10-27T10:49:32.010Z,98918.34
2022-10-27T10:52:05.964Z,98918.41
2022-10-27T10:54:39.503Z,98917.19
2022-10-27T10:57:30.630Z,98915.41
2022-10-27T11:00:17.524Z,98914.94
2022-10-27T11:02:59.339Z,98913.06
2022-10-27T11:05:35.710Z,98921.19
2022-10-27T11:08:08.823Z,98915.06
2022-10-27T11:10:44.507Z,98909.28
2022-10-27T11:13:22.562Z,98909.44
2022-10-27T11:16:02.091Z,98902.78
2022-10-27T11:18:38.164Z,98902.91
2022-10-27T11:21:17.432Z,98895.28
2022-10-27T11:23:51.412Z,98893.22
2022-10-27T11:26:30.059Z,98888.31
2022-10-27T11:29:13.414Z,98876.16
2022-10-27T11:32:00.035Z,98875.50
2022-10-27T11:34:43.203Z,98867.28
2022-10-27T11:37:24.186Z,98862.34
2022-10-27T11:40:05.413Z,98855.03
2022-10-27T11:42:46.269Z,98859.97
2022-10-27T11:45:24.758Z,98866.00
2022-10-27T11:48:02.599Z,98859.91
2022-10-27T11:50:41.531Z,98852.03
2022-10-27T11:53:14.357Z,98848.66
2022-10-27T11:56:06.469Z,98853.75
2022-10-27T11:58:53.747Z,98842.47
2022-10-27T12:01:41.840Z,98849.41
2022-10-27T12:04:34.651Z,98845.63
2022-10-27T12:07:16.888Z,98841.16
2022-10-27T12:10:10.974Z,98842.34
2022-10-27T12:12:46.636Z,98835.22
2022-10-27T12:15:28.515Z,98832.25
2022-10-27T12:18:10.057Z,98831.69
2022-10-27T12:20:53.352Z,98826.69
2022-10-27T12:23:29.042Z,98826.78
2022-10-27T12:26:09.817Z,98819.41
2022-10-27T12:28:41.103Z,98810.03
2022-10-27T12:31:20.686Z,98817.09
2022-10-27T12:33:58.678Z,98812.47
2022-10-27T12:36:43.346Z,98815.16
2022-10-27T12:39:26.387Z,98812.56
2022-10-27T12:42:09.891Z,98802.13
2022-10-27T12:44:54.806Z,98801.72
2022-10-27T12:47:48.145Z,98800.19
2022-10-27T12:50:32.643Z,98794.88
2022-10-27T12:56:31.979Z,98789.22
2022-10-27T12:59:23.359Z,98793.66
2022-10-27T13:02:01.433Z,98784.13
2022-10-27T13:05:26.147Z,98785.22
2022-10-27T13:08:53.869Z,98782.38
2022-10-27T13:11:46.533Z,98774.16
2022-10-27T13:14:56.638Z,98784.78
2022-10-27T13:17:41.834Z,98785.31
2022-10-27T13:20:32.326Z,98778.13
2022-10-27T13:23:12.831Z,98774.03
2022-10-27T13:25:53.995Z,98769.13
2022-10-27T13:28:33.065Z,98772.22
2022-10-27T13:31:16.038Z,98764.72
2022-10-27T13:34:05.097Z,98761.00
2022-10-27T13:36:35.665Z,98762.31
2022-10-27T13:39:45.961Z,98759.19
2022-10-27T13:42:28.448Z,98759.44
2022-10-27T13:44:58.565Z,98759.75
2022-10-27T13:47:28.636Z,98764.78
2022-10-27T13:50:02.810Z,98755.81
2022-10-27T13:52:37.010Z,98749.16
2022-10-27T13:55:39.879Z,98752.84
2022-10-27T13:58:48.974Z,98756.63
2022-10-27T14:01:30.965Z,98753.38
2022-10-27T14:04:39.376Z,98757.00
2022-10-27T14:07:16.658Z,98762.25
2022-10-27T14:09:50.611Z,98765.38
2022-10-27T14:12:32.766Z,98762.78
2022-10-27T14:17:55.773Z,98752.69
2022-10-27T14:20:32.792Z,98754.56
2022-10-27T14:23:10.622Z,98759.16
2022-10-27T14:25:41.004Z,98761.69
2022-10-27T14:28:19.345Z,98763.38
2022-10-27T14:31:10.614Z,98758.28
2022-10-27T14:33:43.306Z,98754.06
2022-10-27T14:36:24.934Z,98763.91
2022-10-27T14:39:22.162Z,98756.63
2022-10-27T14:41:55.185Z,98762.88
2022-10-27T14:44:31.055Z,98763.16
2022-10-27T14:47:07.713Z,98757.72
2022-10-27T14:49:47.761Z,98749.91
2022-10-27T14:54:59.187Z,98747.44
2022-10-27T14:57:38.221Z,98749.66
2022-10-27T15:00:26.399Z,98751.16
2022-10-27T15:02:59.732Z,98753.88
2022-10-27T15:05:37.119Z,98752.00
2022-10-27T15:08:19.555Z,98750.75
2022-10-27T15:10:53.354Z,98745.38
2022-10-27T15:13:25.047Z,98741.38
2022-10-27T15:16:04.321Z,98742.03
2022-10-27T15:18:39.007Z,98739.56
2022-10-27T15:21:17.905Z,98743.03
2022-10-27T15:23:52.247Z,98735.75
2022-10-27T15:26:30.705Z,98737.00
2022-10-27T15:29:03.681Z,98735.50
2022-10-27T15:31:42.872Z,98743.03
2022-10-27T15:34:36.079Z,98728.41
2022-10-27T15:37:30.839Z,98739.88
2022-10-27T15:40:33.360Z,98738.81
2022-10-27T15:43:05.474Z,98748.88
2022-10-27T15:45:46.660Z,98747.03
2022-10-27T15:48:38.134Z,98747.50
2022-10-27T15:51:11.693Z,98752.13
2022-10-27T15:53:51.755Z,98751.84
2022-10-27T15:56:44.332Z,98751.50
2022-10-27T15:59:22.456Z,98754.84
2022-10-27T16:01:56.247Z,98752.41
2022-10-27T16:04:34.579Z,98760.22
2022-10-27T16:07:35.053Z,98766.03
2022-10-27T16:10:09.099Z,98767.69
2022-10-27T16:12:45.347Z,98767.03
2022-10-27T16:15:23.448Z,98767.84
2022-10-27T16:17:56.859Z,98771.00
2022-10-27T16:20:34.099Z,98768.47
2022-10-27T16:23:05.159Z,98775.94
2022-10-27T16:25:37.838Z,98773.88
2022-10-27T16:28:19.348Z,98768.91
2022-10-27T16:30:49.567Z,98766.69
2022-10-27T16:33:24.108Z,98763.25
2022-10-27T16:35:54.216Z,98770.19
2022-10-27T16:38:24.238Z,98770.47
2022-10-27T16:40:58.741Z,98761.81
2022-10-27T16:43:36.076Z,98767.75
2022-10-27T16:46:06.661Z,98759.94
2022-10-27T16:48:37.921Z,98762.56
2022-10-27T16:51:08.782Z,98761.41
2022-10-27T16:53:38.894Z,98756.16
2022-10-27T16:56:14.559Z,98758.13
2022-10-27T16:58:45.515Z,98768.13
2022-10-27T17:01:20.132Z,98773.72
2022-10-27T17:03:51.304Z,98778.13
2022-10-27T17:06:22.137Z,98777.31
2022-10-27T17:08:52.477Z,98782.91
2022-10-27T17:11:25.540Z,98785.91
2022-10-27T17:13:56.292Z,98785.13
2022-10-27T17:16:26.306Z,98786.75
2022-10-27T17:18:56.448Z,98789.13
2022-10-27T17:21:26.524Z,98788.94
2022-10-27T17:23:56.870Z,98792.50
2022-10-27T17:26:29.940Z,98802.59
2022-10-27T17:29:00.165Z,98806.75
2022-10-27T17:31:30.825Z,98806.75
2022-10-27T17:34:01.788Z,98799.22
2022-10-27T17:36:32.426Z,98811.28
2022-10-27T17:39:02.788Z,98816.22
2022-10-27T17:41:35.381Z,98813.44
2022-10-27T17:44:05.605Z,98825.28
2022-10-27T17:46:35.658Z,98825.91
2022-10-27T17:49:05.699Z,98821.00
2022-10-27T17:51:37.056Z,98824.97
2022-10-27T17:54:07.470Z,98825.78
2022-10-27T17:56:40.675Z,98815.53
2022-10-27T17:59:15.125Z,98819.47
2022-10-27T18:01:48.078Z,98817.13
2022-10-27T18:04:19.421Z,98827.81
2022-10-27T18:06:49.450Z,98830.56
2022-10-27T18:09:19.766Z,98835.72
2022-10-27T18:11:52.333Z,98838.88
2022-10-27T18:14:23.779Z,98841.84
2022-10-27T18:16:53.784Z,98838.88
2022-10-27T18:19:23.884Z,98845.19
2022-10-27T18:21:53.869Z,98845.59
2022-10-27T18:27:11.557Z,98849.94
2022-10-27T18:29:43.514Z,98845.59
2022-10-27T18:32:20.103Z,98849.38
2022-10-27T18:34:50.467Z,98855.44
2022-10-27T18:37:21.399Z,98855.44
2022-10-27T18:39:51.546Z,98856.22
2022-10-27T18:42:24.137Z,98856.19
2022-10-27T18:44:54.157Z,98857.19
2022-10-27T18:47:24.184Z,98858.56
2022-10-27T18:49:54.206Z,98858.34
2022-10-27T18:52:24.339Z,98858.34
2022-10-27T18:54:54.433Z,98860.91
2022-10-27T18:57:27.305Z,98863.66
2022-10-27T18:59:57.374Z,98863.66
2022-10-27T19:02:27.622Z,98858.94
2022-10-27T19:04:57.889Z,98857.97
2022-10-27T19:07:28.134Z,98856.00
2022-10-27T19:09:58.351Z,98857.19
2022-10-27T19:12:30.993Z,98860.34
2022-10-27T19:15:00.994Z,98860.56
2022-10-27T19:17:31.028Z,98849.53
2022-10-27T19:20:01.158Z,98856.25
2022-10-27T19:22:31.206Z,98865.53
2022-10-27T19:25:02.310Z,98860.19
2022-10-27T19:27:35.010Z,98864.34
2022-10-27T19:30:05.134Z,98857.38
2022-10-27T19:32:36.321Z,98855.44
2022-10-27T19:35:07.068Z,98847.69
2022-10-27T19:37:37.138Z,98849.66
2022-10-27T19:40:12.604Z,98847.28
2022-10-27T19:42:47.621Z,98848.63
2022-10-27T19:45:17.694Z,98846.38
2022-10-27T19:47:50.478Z,98847.38
2022-10-27T19:50:20.889Z,98845.59
2022-10-27T19:52:51.117Z,98857.94
2022-10-27T19:55:21.163Z,98861.13
2022-10-27T19:57:54.265Z,98856.00
2022-10-27T20:00:24.906Z,98857.94
2022-10-27T20:02:58.066Z,98860.75
2022-10-27T20:05:28.288Z,98849.25
2022-10-27T20:07:58.631Z,98849.41
2022-10-27T20:10:28.798Z,98848.81
2022-10-27T20:13:01.397Z,98845.00
2022-10-27T20:15:31.374Z,98838.69
2022-10-27T20:18:01.397Z,98836.06
2022-10-27T20:20:31.413Z,98837.03
2022-10-27T20:23:01.847Z,98843.09
2022-10-27T20:25:31.805Z,98848.34
2022-10-27T20:28:04.431Z,98843.16
2022-10-27T20:30:34.457Z,98843.00
2022-10-27T20:33:04.430Z,98841.41
2022-10-27T20:35:34.370Z,98847.66
2022-10-27T20:38:04.422Z,98855.28
2022-10-27T20:40:34.474Z,98859.22
2022-10-27T20:43:07.229Z,98857.53
2022-10-27T20:45:37.233Z,98851.53
2022-10-27T20:48:08.197Z,98857.41
2022-10-27T20:50:38.229Z,98853.41
2022-10-27T20:53:08.289Z,98859.28
2022-10-27T20:55:38.274Z,98851.84
2022-10-27T20:58:11.090Z,98851.84
2022-10-27T21:00:41.149Z,98852.94
2022-10-27T21:03:11.409Z,98850.94
2022-10-27T21:05:41.441Z,98853.88
2022-10-27T21:08:11.940Z,98849.81
2022-10-27T21:10:43.904Z,98851.53
2022-10-27T21:13:16.836Z,98854.09
2022-10-27T21:15:46.821Z,98850.44
2022-10-27T21:18:16.814Z,98851.09
2022-10-27T21:20:46.784Z,98840.03
2022-10-27T21:23:16.865Z,98842.09
2022-10-27T21:25:47.052Z,98843.00
2022-10-27T21:28:19.658Z,98846.13
2022-10-27T21:30:50.390Z,98845.88
2022-10-27T21:33:20.436Z,98847.13
2022-10-27T21:35:52.328Z,98842.63
2022-10-27T21:38:22.473Z,98846.47
2022-10-27T21:40:52.462Z,98853.66
2022-10-27T21:43:25.515Z,98846.25
2022-10-27T21:45:59.239Z,98847.81
2022-10-27T21:48:29.317Z,98847.16
2022-10-27T21:50:59.802Z,98846.44
2022-10-27T21:53:30.751Z,98841.69
2022-10-27T21:56:04.586Z,98846.81
2022-10-27T21:58:38.872Z,98850.19
2022-10-27T22:01:11.768Z,98845.09
2022-10-27T22:03:43.170Z,98849.16
2022-10-27T22:06:21.344Z,98852.69
2022-10-27T22:08:52.217Z,98859.38
2022-10-27T22:11:25.982Z,98857.06
2022-10-27T22:13:58.731Z,98855.72
2022-10-27T22:16:31.857Z,98858.38
2022-10-27T22:19:04.183Z,98849.28
2022-10-27T22:21:37.787Z,98853.16
2022-10-27T22:24:09.965Z,98852.81
2022-10-27T22:26:42.627Z,98859.75
2022-10-27T22:29:15.291Z,98855.72
2022-10-27T22:31:45.421Z,98846.81
2022-10-27T22:34:15.674Z,98859.75
2022-10-27T22:36:45.798Z,98849.28
2022-10-27T22:39:16.633Z,98853.59
2022-10-27T22:41:47.123Z,98855.84
2022-10-27T22:44:19.718Z,98852.34
2022-10-27T22:46:49.746Z,98851.09
2022-10-27T22:49:19.798Z,98846.84
2022-10-27T22:51:50.132Z,98837.88
2022-10-27T22:54:20.169Z,98837.81
2022-10-27T22:56:50.234Z,98837.22
2022-10-27T22:59:22.877Z,98841.56
2022-10-27T23:01:53.224Z,98837.59
2022-10-27T23:04:23.446Z,98840.94
2022-10-27T23:06:53.489Z,98842.88
2022-10-27T23:09:24.814Z,98847.00
2022-10-27T23:11:54.822Z,98840.84
2022-10-27T23:14:27.481Z,98843.50
2022-10-27T23:16:59.178Z,98843.91
2022-10-27T23:19:29.164Z,98843.66
2022-10-27T23:21:59.159Z,98841.09
2022-10-27T23:24:29.149Z,98844.53
2022-10-27T23:26:59.134Z,98847.97
2022-10-27T23:29:31.734Z,98854.13
2022-10-27T23:32:01.858Z,98849.59
2022-10-27T23:34:31.870Z,98852.19
2022-10-27T23:37:02.066Z,98845.88
2022-10-27T23:39:32.899Z,98866.03
2022-10-27T23:42:02.934Z,98860.75
2022-10-27T23:44:35.542Z,98854.22
2022-10-27T23:47:05.536Z,98862.59
2022-10-27T23:49:35.493Z,98854.81
2022-10-27T23:52:05.587Z,98861.34
2022-10-27T23:54:35.585Z,98852.41
2022-10-27T23:57:05.623Z,98858.63
2022-10-27T23:59:38.213Z,98859.19
